createdAt,value
2022-09-20T00:01:38.196Z,6.81
2022-09-20T00:04:07.162Z,6.76
2022-09-20T00:06:35.958Z,6.70
2022-09-20T00:09:05.708Z,6.67
2022-09-20T00:11:35.377Z,6.63
2022-09-20T00:14:30.620Z,6.59
2022-09-20T00:16:59.279Z,6.53
2022-09-20T00:19:27.865Z,6.48
2022-09-20T00:21:55.995Z,6.42
2022-09-20T00:24:25.634Z,6.38
2022-09-20T00:26:55.314Z,6.33
2022-09-20T00:29:23.952Z,6.27
2022-09-20T00:31:54.769Z,6.24
2022-09-20T00:34:44.729Z,6.25
2022-09-20T00:37:16.311Z,6.28
2022-09-20T00:39:52.740Z,6.31
2022-09-20T00:42:28.465Z,6.33
2022-09-20T00:45:04.236Z,6.38
2022-09-20T00:47:45.179Z,6.45
2022-09-20T00:50:27.232Z,6.52
2022-09-20T00:53:15.696Z,6.56
2022-09-20T00:56:44.609Z,6.59
2022-09-20T00:59:41.441Z,6.63
2022-09-20T01:02:25.584Z,6.71
2022-09-20T01:04:54.979Z,6.76
2022-09-20T01:07:25.089Z,6.80
2022-09-20T01:09:53.645Z,6.86
2022-09-20T01:12:26.855Z,6.89
2022-09-20T01:14:56.496Z,6.89
2022-09-20T01:17:29.506Z,6.90
2022-09-20T01:20:16.041Z,6.91
2022-09-20T01:22:44.301Z,6.93
2022-09-20T01:25:34.396Z,6.96
2022-09-20T01:28:02.663Z,7.03
2022-09-20T01:30:44.152Z,7.12
2022-09-20T01:33:31.324Z,7.16
2022-09-20T01:36:04.145Z,7.12
2022-09-20T01:38:40.865Z,7.10
2022-09-20T01:41:15.277Z,7.12
2022-09-20T01:43:59.132Z,7.14
2022-09-20T01:46:32.441Z,7.12
2022-09-20T01:49:37.808Z,7.10
2022-09-20T01:52:20.929Z,7.03
2022-09-20T01:55:13.951Z,6.93
2022-09-20T01:58:00.825Z,6.84
2022-09-20T02:04:53.565Z,6.66
2022-09-20T02:07:40.733Z,6.57
2022-09-20T02:10:23.317Z,6.50
2022-09-20T02:12:58.997Z,6.44
2022-09-20T02:15:45.751Z,6.35
2022-09-20T02:18:46.377Z,6.28
2022-09-20T02:21:33.074Z,6.24
2022-09-20T02:24:38.446Z,6.18
2022-09-20T02:27:13.081Z,6.13
2022-09-20T02:30:19.799Z,6.08
2022-09-20T02:32:59.367Z,6.01
2022-09-20T02:35:40.431Z,5.95
2022-09-20T02:38:46.350Z,5.89
2022-09-20T02:41:22.269Z,5.83
2022-09-20T02:44:00.544Z,5.77
2022-09-20T02:46:45.846Z,5.70
2022-09-20T02:49:52.356Z,5.66
2022-09-20T02:53:08.772Z,5.63
2022-09-20T02:56:04.884Z,5.60
2022-09-20T02:59:22.249Z,5.53
2022-09-20T03:02:06.539Z,5.49
2022-09-20T03:05:05.034Z,5.47
2022-09-20T03:07:42.107Z,5.48
2022-09-20T03:10:36.740Z,5.47
2022-09-20T03:13:16.280Z,5.47
2022-09-20T03:15:58.130Z,5.47
2022-09-20T03:18:29.198Z,5.48
2022-09-20T03:21:12.200Z,5.49
2022-09-20T03:23:52.372Z,5.51
2022-09-20T03:26:49.502Z,5.51
2022-09-20T03:29:29.488Z,5.48
2022-09-20T03:32:16.277Z,5.45
2022-09-20T03:34:59.215Z,5.46
2022-09-20T03:37:46.115Z,5.50
2022-09-20T03:41:09.335Z,5.52
2022-09-20T03:43:37.879Z,5.54
2022-09-20T03:46:28.772Z,5.54
2022-09-20T03:49:54.564Z,5.53
2022-09-20T03:53:05.659Z,5.50
2022-09-20T03:55:59.383Z,5.49
2022-09-20T03:59:08.492Z,5.48
2022-09-20T04:02:23.242Z,5.45
2022-09-20T04:04:58.587Z,5.40
2022-09-20T04:07:51.097Z,5.33
2022-09-20T04:10:44.488Z,5.26
2022-09-20T04:13:24.393Z,5.19
2022-09-20T04:17:10.011Z,5.12
2022-09-20T04:20:04.329Z,5.03
2022-09-20T04:22:33.065Z,4.99
2022-09-20T04:25:22.857Z,4.95
2022-09-20T04:27:57.710Z,4.92
2022-09-20T04:30:34.615Z,4.91
2022-09-20T04:33:58.811Z,4.92
2022-09-20T04:37:01.106Z,4.95
2022-09-20T04:40:00.512Z,4.99
2022-09-20T04:43:43.744Z,5.03
2022-09-20T04:46:52.734Z,5.08
2022-09-20T04:49:34.381Z,5.11
2022-09-20T04:52:11.225Z,5.14
2022-09-20T04:55:10.491Z,5.17
2022-09-20T04:58:09.370Z,5.22
2022-09-20T05:01:01.099Z,5.30
2022-09-20T05:04:08.268Z,5.40
2022-09-20T05:06:51.000Z,5.52
2022-09-20T05:09:28.382Z,5.65
2022-09-20T05:12:03.318Z,5.77
2022-09-20T05:14:49.755Z,5.87
2022-09-20T05:17:37.404Z,5.97
2022-09-20T05:20:05.339Z,6.09
2022-09-20T05:23:01.033Z,6.22
2022-09-20T05:25:47.192Z,6.41
2022-09-20T05:28:33.779Z,6.59
2022-09-20T05:31:11.894Z,6.70
2022-09-20T05:33:39.735Z,6.72
2022-09-20T05:36:07.593Z,6.70
2022-09-20T05:38:47.451Z,6.71
2022-09-20T05:41:31.911Z,6.74
2022-09-20T05:44:16.384Z,6.84
2022-09-20T05:47:24.873Z,6.93
2022-09-20T05:50:31.215Z,7.07
2022-09-20T05:53:43.445Z,7.19
2022-09-20T05:56:37.412Z,7.29
2022-09-20T05:59:17.301Z,7.32
2022-09-20T06:02:14.294Z,7.35
2022-09-20T06:05:06.936Z,7.44
2022-09-20T06:07:51.750Z,7.53
2022-09-20T06:10:47.538Z,7.63
2022-09-20T06:13:24.428Z,7.74
2022-09-20T06:16:02.201Z,7.77
2022-09-20T06:18:36.834Z,7.77
2022-09-20T06:21:14.138Z,7.79
2022-09-20T06:23:42.415Z,7.81
2022-09-20T06:26:27.892Z,7.81
2022-09-20T06:29:03.435Z,7.79
2022-09-20T06:31:31.358Z,7.80
2022-09-20T06:34:05.793Z,7.78
2022-09-20T06:36:55.251Z,7.79
2022-09-20T06:40:08.203Z,7.83
2022-09-20T06:42:36.229Z,7.89
2022-09-20T06:45:04.907Z,7.94
2022-09-20T06:47:35.739Z,7.98
2022-09-20T06:50:07.160Z,8.02
2022-09-20T06:52:35.779Z,8.05
2022-09-20T06:55:07.453Z,8.07
2022-09-20T06:57:38.525Z,8.06
2022-09-20T07:00:10.256Z,8.00
2022-09-20T07:02:38.637Z,7.95
2022-09-20T07:05:07.672Z,7.96
2022-09-20T07:07:35.589Z,8.00
2022-09-20T07:10:03.717Z,8.09
2022-09-20T07:12:34.028Z,8.22
2022-09-20T07:15:02.417Z,8.35
2022-09-20T07:17:30.272Z,8.49
2022-09-20T07:19:58.149Z,8.57
2022-09-20T07:22:27.187Z,8.63
2022-09-20T07:24:55.351Z,8.73
2022-09-20T07:27:26.375Z,8.82
2022-09-20T07:29:56.705Z,8.92
2022-09-20T07:32:24.892Z,8.96
2022-09-20T07:34:52.892Z,9.04
2022-09-20T07:37:20.744Z,9.17
2022-09-20T07:39:48.664Z,9.35
2022-09-20T07:42:16.884Z,9.47
2022-09-20T07:44:45.002Z,9.57
2022-09-20T07:47:14.158Z,9.68
2022-09-20T07:49:42.013Z,9.80
2022-09-20T07:52:11.314Z,9.95
2022-09-20T07:54:40.022Z,10.12
2022-09-20T07:57:08.225Z,10.28
2022-09-20T07:59:36.025Z,10.41
2022-09-20T08:02:04.577Z,10.46
2022-09-20T08:04:32.508Z,10.50
2022-09-20T08:07:01.604Z,10.70
2022-09-20T08:09:29.612Z,10.86
2022-09-20T08:11:58.450Z,10.94
2022-09-20T08:14:26.349Z,10.96
2022-09-20T08:16:58.359Z,10.89
2022-09-20T08:19:26.841Z,10.84
2022-09-20T08:21:55.080Z,10.85
2022-09-20T08:24:22.998Z,10.85
2022-09-20T08:26:50.803Z,10.77
2022-09-20T08:29:18.694Z,10.61
2022-09-20T08:31:47.267Z,10.42
2022-09-20T08:34:17.716Z,10.23
2022-09-20T08:36:47.255Z,10.06
2022-09-20T08:42:22.343Z,10.17
2022-09-20T08:44:59.335Z,10.37
2022-09-20T08:47:31.257Z,10.57
2022-09-20T08:50:00.927Z,10.75
2022-09-20T08:52:37.146Z,10.94
2022-09-20T08:55:17.557Z,11.15
2022-09-20T08:57:53.057Z,11.34
2022-09-20T09:00:26.618Z,11.45
2022-09-20T09:02:57.184Z,11.59
2022-09-20T09:05:32.773Z,11.76
2022-09-20T09:08:09.124Z,11.93
2022-09-20T09:10:42.875Z,12.05
2022-09-20T09:13:26.317Z,12.25
2022-09-20T09:15:57.924Z,12.42
2022-09-20T09:18:49.312Z,12.43
2022-09-20T09:21:18.539Z,12.54
2022-09-20T09:24:02.770Z,12.54
2022-09-20T09:26:40.118Z,12.49
2022-09-20T09:29:18.887Z,12.50
2022-09-20T09:31:49.384Z,12.48
2022-09-20T09:34:38.922Z,12.45
2022-09-20T09:37:26.409Z,12.43
2022-09-20T09:40:17.793Z,12.38
2022-09-20T09:42:54.622Z,12.41
2022-09-20T09:45:33.206Z,12.52
2022-09-20T09:48:02.304Z,12.37
2022-09-20T09:50:34.134Z,12.14
2022-09-20T09:53:15.394Z,11.98
2022-09-20T09:56:18.109Z,11.85
2022-09-20T09:59:10.807Z,11.73
2022-09-20T10:02:00.194Z,11.67
2022-09-20T10:04:37.327Z,11.57
2022-09-20T10:07:05.108Z,11.49
2022-09-20T10:09:42.946Z,11.50
2022-09-20T10:12:46.141Z,11.46
2022-09-20T10:15:44.798Z,11.42
2022-09-20T10:18:24.657Z,11.50
2022-09-20T10:21:07.977Z,11.61
2022-09-20T10:24:13.205Z,11.75
2022-09-20T10:26:56.132Z,11.97
2022-09-20T10:29:30.319Z,11.97
2022-09-20T10:32:01.176Z,11.92
2022-09-20T10:34:43.988Z,11.91
2022-09-20T10:37:37.079Z,11.91
2022-09-20T10:40:50.848Z,11.96
2022-09-20T10:43:36.462Z,12.00
2022-09-20T10:49:04.043Z,12.22
2022-09-20T10:51:47.499Z,12.46
2022-09-20T10:54:24.009Z,12.44
2022-09-20T10:57:03.063Z,12.21
2022-09-20T10:59:40.082Z,11.89
2022-09-20T11:02:16.719Z,11.62
2022-09-20T11:04:50.564Z,11.49
2022-09-20T11:07:42.972Z,11.45
2022-09-20T11:10:29.602Z,11.49
2022-09-20T11:13:02.488Z,11.54
2022-09-20T11:15:39.982Z,11.69
2022-09-20T11:18:23.472Z,11.91
2022-09-20T11:21:08.352Z,11.93
2022-09-20T11:23:44.516Z,11.71
2022-09-20T11:26:22.639Z,11.50
2022-09-20T11:28:55.126Z,11.36
2022-09-20T11:31:43.031Z,11.32
2022-09-20T11:34:29.861Z,11.38
2022-09-20T11:37:03.449Z,11.61
2022-09-20T11:39:46.268Z,12.06
2022-09-20T11:42:21.353Z,12.42
2022-09-20T11:44:51.041Z,12.44
2022-09-20T11:47:53.368Z,12.48
2022-09-20T11:50:46.019Z,12.54
2022-09-20T11:53:32.128Z,12.46
2022-09-20T11:56:18.252Z,12.29
2022-09-20T11:58:48.372Z,12.14
2022-09-20T12:01:28.569Z,12.08
2022-09-20T12:04:28.272Z,12.16
2022-09-20T12:07:10.327Z,12.26
2022-09-20T12:09:44.029Z,12.36
2022-09-20T12:12:23.833Z,12.46
2022-09-20T12:15:00.763Z,12.53
2022-09-20T12:17:47.084Z,12.53
2022-09-20T12:20:33.175Z,12.42
2022-09-20T12:23:42.360Z,12.41
2022-09-20T12:26:14.025Z,12.39
2022-09-20T12:28:44.670Z,12.38
2022-09-20T12:31:18.803Z,12.43
2022-09-20T12:34:22.308Z,12.49
2022-09-20T12:36:56.162Z,12.67
2022-09-20T12:39:31.711Z,12.77
2022-09-20T12:42:07.882Z,12.85
2022-09-20T12:44:37.932Z,12.90
2022-09-20T12:47:10.507Z,12.93
2022-09-20T12:50:06.484Z,12.92
2022-09-20T12:53:02.363Z,12.95
2022-09-20T12:55:41.303Z,12.93
2022-09-20T12:58:14.431Z,12.85
2022-09-20T13:00:45.821Z,12.75
2022-09-20T13:03:36.669Z,12.62
2022-09-20T13:06:05.807Z,12.48
2022-09-20T13:08:50.579Z,12.37
2022-09-20T13:11:30.498Z,12.23
2022-09-20T13:14:07.596Z,12.10
2022-09-20T13:16:47.620Z,12.00
2022-09-20T13:19:29.753Z,11.90
2022-09-20T13:22:00.624Z,11.82
2022-09-20T13:24:33.029Z,11.74
2022-09-20T13:27:06.958Z,11.68
2022-09-20T13:29:40.810Z,11.62
2022-09-20T13:32:20.720Z,11.56
2022-09-20T13:35:04.976Z,11.55
2022-09-20T13:37:33.831Z,11.59
2022-09-20T13:40:04.020Z,11.61
2022-09-20T13:42:35.796Z,11.63
2022-09-20T13:45:04.826Z,11.64
2022-09-20T13:47:32.770Z,11.64
2022-09-20T13:50:20.401Z,11.63
2022-09-20T13:52:50.877Z,11.69
2022-09-20T13:55:39.159Z,11.89
2022-09-20T13:58:16.151Z,12.00
2022-09-20T14:00:50.458Z,12.03
2022-09-20T14:03:21.027Z,12.01
2022-09-20T14:06:12.405Z,11.98
2022-09-20T14:08:47.182Z,11.93
2022-09-20T14:11:31.499Z,11.91
2022-09-20T14:14:02.985Z,11.90
2022-09-20T14:16:33.041Z,11.86
2022-09-20T14:19:03.199Z,11.79
2022-09-20T14:21:35.703Z,11.74
2022-09-20T14:24:08.003Z,11.69
2022-09-20T14:26:38.628Z,11.64
2022-09-20T14:29:34.355Z,11.61
2022-09-20T14:32:14.584Z,11.59
2022-09-20T14:34:43.759Z,11.56
2022-09-20T14:37:23.619Z,11.53
2022-09-20T14:40:04.845Z,11.50
2022-09-20T14:42:42.569Z,11.45
2022-09-20T14:45:30.523Z,11.37
2022-09-20T14:48:09.590Z,11.30
2022-09-20T14:50:42.257Z,11.27
2022-09-20T14:53:10.914Z,11.26
2022-09-20T14:55:42.311Z,11.22
2022-09-20T14:58:12.351Z,11.20
2022-09-20T15:01:03.610Z,11.19
2022-09-20T15:03:40.253Z,11.21
2022-09-20T15:06:13.605Z,11.24
2022-09-20T15:08:46.357Z,11.24
2022-09-20T15:11:18.810Z,11.26
2022-09-20T15:13:47.002Z,11.27
2022-09-20T15:16:17.944Z,11.27
2022-09-20T15:18:46.781Z,11.24
2022-09-20T15:21:15.225Z,11.22
2022-09-20T15:23:43.972Z,11.21
2022-09-20T15:26:14.304Z,11.19
2022-09-20T15:28:42.319Z,11.17
2022-09-20T15:31:10.526Z,11.12
2022-09-20T15:33:38.423Z,11.05
2022-09-20T15:36:06.913Z,10.99
2022-09-20T15:38:34.812Z,10.96
2022-09-20T15:41:07.503Z,10.94
2022-09-20T15:43:35.687Z,10.94
2022-09-20T15:46:24.583Z,10.94
2022-09-20T15:48:54.544Z,10.92
2022-09-20T15:51:22.992Z,10.92
2022-09-20T15:54:00.282Z,10.92
2022-09-20T15:56:33.745Z,10.90
2022-09-20T15:59:06.637Z,10.90
2022-09-20T16:01:38.187Z,10.89
2022-09-20T16:04:09.978Z,10.85
2022-09-20T16:06:40.087Z,10.82
2022-09-20T16:09:08.812Z,10.78
2022-09-20T16:11:37.515Z,10.72
2022-09-20T16:14:06.372Z,10.67
2022-09-20T16:16:40.040Z,10.61
2022-09-20T16:19:17.625Z,10.57
2022-09-20T16:21:53.606Z,10.52
2022-09-20T16:24:26.977Z,10.49
2022-09-20T16:26:55.125Z,10.43
2022-09-20T16:29:23.616Z,10.37
2022-09-20T16:31:52.878Z,10.33
2022-09-20T16:34:22.173Z,10.27
2022-09-20T16:36:53.865Z,10.22
2022-09-20T16:39:29.105Z,10.16
2022-09-20T16:42:03.738Z,10.10
2022-09-20T16:44:34.068Z,10.03
2022-09-20T16:47:03.670Z,9.98
2022-09-20T16:49:31.483Z,9.94
2022-09-20T16:51:59.622Z,9.90
2022-09-20T16:54:31.799Z,9.86
2022-09-20T16:57:00.355Z,9.84
2022-09-20T16:59:28.311Z,9.83
2022-09-20T17:01:56.408Z,9.82
2022-09-20T17:04:24.534Z,9.78
2022-09-20T17:06:52.842Z,9.73
2022-09-20T17:09:21.043Z,9.70
2022-09-20T17:11:50.354Z,9.65
2022-09-20T17:14:20.631Z,9.60
2022-09-20T17:16:49.523Z,9.56
2022-09-20T17:19:19.885Z,9.52
2022-09-20T17:21:51.073Z,9.48
2022-09-20T17:24:21.247Z,9.45
2022-09-20T17:26:50.880Z,9.40
2022-09-20T17:29:20.410Z,9.36
2022-09-20T17:31:55.629Z,9.32
2022-09-20T17:34:25.654Z,9.30
2022-09-20T17:36:56.719Z,9.28
2022-09-20T17:39:25.024Z,9.27
2022-09-20T17:41:53.756Z,9.26
2022-09-20T17:44:21.740Z,9.26
2022-09-20T17:46:50.916Z,9.26
2022-09-20T17:49:21.584Z,9.26
2022-09-20T17:51:55.132Z,9.27
2022-09-20T17:54:24.576Z,9.28
2022-09-20T17:56:56.068Z,9.26
2022-09-20T17:59:24.749Z,9.26
2022-09-20T18:01:54.641Z,9.26
2022-09-20T18:04:25.101Z,9.27
2022-09-20T18:06:54.630Z,9.27
2022-09-20T18:09:25.383Z,9.26
2022-09-20T18:11:55.409Z,9.24
2022-09-20T18:14:27.603Z,9.22
2022-09-20T18:17:00.906Z,9.19
2022-09-20T18:19:33.903Z,9.16
2022-09-20T18:22:02.993Z,9.11
2022-09-20T18:24:31.739Z,9.05
2022-09-20T18:27:01.035Z,9.00
2022-09-20T18:29:33.513Z,8.94
2022-09-20T18:32:01.602Z,8.87
2022-09-20T18:34:33.530Z,8.79
2022-09-20T18:37:03.942Z,8.70
2022-09-20T18:39:33.767Z,8.62
2022-09-20T18:42:02.716Z,8.53
2022-09-20T18:44:34.390Z,8.44
2022-09-20T18:47:06.712Z,8.35
2022-09-20T18:49:41.105Z,8.26
2022-09-20T18:52:12.318Z,8.18
2022-09-20T18:54:40.928Z,8.12
2022-09-20T18:57:10.556Z,8.05
2022-09-20T18:59:40.412Z,7.99
2022-09-20T19:02:41.934Z,7.93
2022-09-20T19:05:34.000Z,7.88
2022-09-20T19:08:34.474Z,7.83
2022-09-20T19:11:12.783Z,7.77
2022-09-20T19:13:48.010Z,7.72
2022-09-20T19:16:34.412Z,7.68
2022-09-20T19:19:16.854Z,7.63
2022-09-20T19:21:56.815Z,7.59
2022-09-20T19:25:10.477Z,7.54
2022-09-20T19:27:38.854Z,7.53
2022-09-20T19:30:08.009Z,7.52
2022-09-20T19:32:36.336Z,7.51
2022-09-20T19:35:04.621Z,7.51
2022-09-20T19:38:00.514Z,7.51
2022-09-20T19:40:52.059Z,7.52
2022-09-20T19:43:42.280Z,7.55
2022-09-20T19:46:28.807Z,7.57
2022-09-20T19:49:15.402Z,7.60
2022-09-20T19:51:44.968Z,7.62
2022-09-20T19:54:15.173Z,7.64
2022-09-20T19:56:59.607Z,7.64
2022-09-20T19:59:28.203Z,7.66
2022-09-20T20:01:56.605Z,7.70
2022-09-20T20:04:24.825Z,7.72
2022-09-20T20:07:07.812Z,7.74
2022-09-20T20:09:55.012Z,7.76
2022-09-20T20:12:46.164Z,7.78
2022-09-20T20:15:46.362Z,7.76
2022-09-20T20:18:41.709Z,7.80
2022-09-20T20:21:21.581Z,7.83
2022-09-20T20:23:52.361Z,7.86
2022-09-20T20:26:27.046Z,7.91
2022-09-20T20:28:54.979Z,7.96
2022-09-20T20:31:23.466Z,8.01
2022-09-20T20:33:51.748Z,8.05
2022-09-20T20:36:19.672Z,8.03
2022-09-20T20:38:50.754Z,7.98
2022-09-20T20:41:21.359Z,7.97
2022-09-20T20:43:56.374Z,7.97
2022-09-20T20:46:25.140Z,7.95
2022-09-20T20:48:53.247Z,7.95
2022-09-20T20:51:22.972Z,7.94
2022-09-20T20:53:52.870Z,7.92
2022-09-20T20:56:26.367Z,7.89
2022-09-20T20:58:56.170Z,7.86
2022-09-20T21:01:46.077Z,7.83
2022-09-20T21:04:15.843Z,7.78
2022-09-20T21:06:44.194Z,7.74
2022-09-20T21:09:13.498Z,7.70
2022-09-20T21:11:44.476Z,7.63
2022-09-20T21:14:13.157Z,7.54
2022-09-20T21:16:43.414Z,7.47
2022-09-20T21:19:15.197Z,7.40
2022-09-20T21:21:45.373Z,7.36
2022-09-20T21:24:17.307Z,7.33
2022-09-20T21:26:46.627Z,7.31
2022-09-20T21:29:16.220Z,7.29
2022-09-20T21:31:46.627Z,7.27
2022-09-20T21:34:16.240Z,7.24
2022-09-20T21:36:45.211Z,7.22
2022-09-20T21:39:13.608Z,7.19
2022-09-20T21:41:41.591Z,7.18
2022-09-20T21:44:12.390Z,7.17
2022-09-20T21:46:42.064Z,7.17
2022-09-20T21:49:12.120Z,7.17
2022-09-20T21:51:42.644Z,7.18
2022-09-20T21:54:11.570Z,7.20
2022-09-20T21:56:40.998Z,7.25
2022-09-20T21:59:09.554Z,7.28
2022-09-20T22:01:40.443Z,7.33
2022-09-20T22:04:11.322Z,7.40
2022-09-20T22:06:42.879Z,7.46
2022-09-20T22:09:17.978Z,7.51
2022-09-20T22:11:48.061Z,7.54
2022-09-20T22:14:19.762Z,7.59
2022-09-20T22:16:51.442Z,7.66
2022-09-20T22:19:19.462Z,7.74
2022-09-20T22:21:49.869Z,7.83
2022-09-20T22:24:18.945Z,7.90
2022-09-20T22:26:49.678Z,7.96
2022-09-20T22:29:18.473Z,8.01
2022-09-20T22:31:50.134Z,8.04
2022-09-20T22:34:20.960Z,8.01
2022-09-20T22:36:49.697Z,7.99
2022-09-20T22:39:18.051Z,8.01
2022-09-20T22:41:48.183Z,8.02
2022-09-20T22:44:16.600Z,8.02
2022-09-20T22:46:44.571Z,8.01
2022-09-20T22:49:12.763Z,7.97
2022-09-20T22:51:40.854Z,7.92
2022-09-20T22:54:13.320Z,7.85
2022-09-20T22:56:44.005Z,7.77
2022-09-20T22:59:14.236Z,7.69
2022-09-20T23:01:45.349Z,7.64
2022-09-20T23:04:19.087Z,7.60
2022-09-20T23:06:57.103Z,7.55
2022-09-20T23:09:27.518Z,7.51
2022-09-20T23:11:56.335Z,7.46
2022-09-20T23:14:24.407Z,7.42
2022-09-20T23:16:53.193Z,7.39
2022-09-20T23:19:21.243Z,7.36
2022-09-20T23:21:49.179Z,7.32
2022-09-20T23:24:17.310Z,7.27
2022-09-20T23:26:45.301Z,7.25
2022-09-20T23:29:15.525Z,7.23
2022-09-20T23:31:46.424Z,7.21
2022-09-20T23:34:17.400Z,7.17
2022-09-20T23:36:46.395Z,7.14
2022-09-20T23:39:15.120Z,7.11
2022-09-20T23:41:46.969Z,7.09
2022-09-20T23:44:16.593Z,7.06
2022-09-20T23:46:44.525Z,7.05
2022-09-20T23:49:12.423Z,7.04
2022-09-20T23:51:40.328Z,7.05
2022-09-20T23:54:08.248Z,7.07
2022-09-20T23:56:36.453Z,7.11
2022-09-20T23:59:04.313Z,7.17
